sensor_id;sensor_type;location;lat;lon;timestamp;P1;durP1;ratioP1;P2;durP2;ratioP2
72611;SDS011;60655;52.182;4.474;2023-06-04T00:00:43;5.90;;;1.40;;
72611;SDS011;60655;52.182;4.474;2023-06-04T00:02:44;4.22;;;1.40;;
72611;SDS011;60655;52.182;4.474;2023-06-04T00:04:45;3.80;;;1.40;;
72611;SDS011;60655;52.182;4.474;2023-06-04T00:06:46;3.85;;;1.25;;
72611;SDS011;60655;52.182;4.474;2023-06-04T00:08:47;5.03;;;1.73;;
72611;SDS011;60655;52.182;4.474;2023-06-04T00:10:48;5.00;;;1.50;;
72611;SDS011;60655;52.182;4.474;2023-06-04T00:12:49;3.35;;;1.30;;
72611;SDS011;60655;52.182;4.474;2023-06-04T00:14:50;3.65;;;1.27;;
72611;SDS011;60655;52.182;4.474;2023-06-04T00:16:50;4.28;;;1.40;;
72611;SDS011;60655;52.182;4.474;2023-06-04T00:18:51;5.22;;;1.50;;
72611;SDS011;60655;52.182;4.474;2023-06-04T00:20:52;5.05;;;1.40;;
72611;SDS011;60655;52.182;4.474;2023-06-04T00:22:53;5.65;;;1.40;;
72611;SDS011;60655;52.182;4.474;2023-06-04T00:24:54;2.92;;;1.23;;
72611;SDS011;60655;52.182;4.474;2023-06-04T00:26:55;6.05;;;1.50;;
72611;SDS011;60655;52.182;4.474;2023-06-04T00:28:56;5.40;;;1.48;;
72611;SDS011;60655;52.182;4.474;2023-06-04T00:30:57;3.42;;;1.25;;
72611;SDS011;60655;52.182;4.474;2023-06-04T00:32:58;4.00;;;1.38;;
72611;SDS011;60655;52.182;4.474;2023-06-04T00:34:59;7.15;;;1.52;;
72611;SDS011;60655;52.182;4.474;2023-06-04T00:37:01;4.85;;;1.42;;
72611;SDS011;60655;52.182;4.474;2023-06-04T00:39:02;5.70;;;1.60;;
72611;SDS011;60655;52.182;4.474;2023-06-04T00:41:03;5.05;;;1.42;;
72611;SDS011;60655;52.182;4.474;2023-06-04T00:43:04;4.13;;;1.45;;
72611;SDS011;60655;52.182;4.474;2023-06-04T00:45:06;4.68;;;1.35;;
72611;SDS011;60655;52.182;4.474;2023-06-04T00:47:08;5.85;;;1.70;;
72611;SDS011;60655;52.182;4.474;2023-06-04T00:49:09;4.43;;;1.35;;
72611;SDS011;60655;52.182;4.474;2023-06-04T00:51:12;3.20;;;1.33;;
72611;SDS011;60655;52.182;4.474;2023-06-04T00:53:14;2.72;;;1.20;;
72611;SDS011;60655;52.182;4.474;2023-06-04T00:55:15;3.53;;;1.33;;
72611;SDS011;60655;52.182;4.474;2023-06-04T00:57:18;5.00;;;1.50;;
72611;SDS011;60655;52.182;4.474;2023-06-04T00:59:19;3.53;;;1.45;;
72611;SDS011;60655;52.182;4.474;2023-06-04T01:03:44;3.55;;;1.40;;
72611;SDS011;60655;52.182;4.474;2023-06-04T01:05:57;3.33;;;1.20;;
72611;SDS011;60655;52.182;4.474;2023-06-04T01:08:04;5.07;;;1.48;;
72611;SDS011;60655;52.182;4.474;2023-06-04T01:10:09;3.30;;;1.40;;
72611;SDS011;60655;52.182;4.474;2023-06-04T01:12:10;3.35;;;1.10;;
72611;SDS011;60655;52.182;4.474;2023-06-04T01:14:11;3.42;;;1.23;;
72611;SDS011;60655;52.182;4.474;2023-06-04T01:16:12;3.53;;;1.30;;
72611;SDS011;60655;52.182;4.474;2023-06-04T01:18:18;5.65;;;1.33;;
72611;SDS011;60655;52.182;4.474;2023-06-04T01:24:42;4.68;;;1.30;;
72611;SDS011;60655;52.182;4.474;2023-06-04T01:26:51;3.88;;;1.30;;
72611;SDS011;60655;52.182;4.474;2023-06-04T01:28:57;5.47;;;1.40;;
72611;SDS011;60655;52.182;4.474;2023-06-04T01:30:59;4.55;;;1.50;;
72611;SDS011;60655;52.182;4.474;2023-06-04T01:33:02;5.43;;;1.50;;
72611;SDS011;60655;52.182;4.474;2023-06-04T01:35:07;7.13;;;1.65;;
72611;SDS011;60655;52.182;4.474;2023-06-04T01:37:09;2.80;;;1.20;;
72611;SDS011;60655;52.182;4.474;2023-06-04T01:39:12;3.58;;;1.30;;
72611;SDS011;60655;52.182;4.474;2023-06-04T01:41:12;4.55;;;1.30;;
72611;SDS011;60655;52.182;4.474;2023-06-04T01:43:14;3.85;;;1.50;;
72611;SDS011;60655;52.182;4.474;2023-06-04T01:45:15;3.92;;;1.40;;
72611;SDS011;60655;52.182;4.474;2023-06-04T01:47:16;2.88;;;1.20;;
72611;SDS011;60655;52.182;4.474;2023-06-04T01:49:17;4.43;;;1.40;;
72611;SDS011;60655;52.182;4.474;2023-06-04T01:51:18;5.20;;;1.60;;
72611;SDS011;60655;52.182;4.474;2023-06-04T01:53:19;6.15;;;1.48;;
72611;SDS011;60655;52.182;4.474;2023-06-04T01:55:20;7.03;;;1.30;;
72611;SDS011;60655;52.182;4.474;2023-06-04T01:57:21;3.50;;;1.27;;
72611;SDS011;60655;52.182;4.474;2023-06-04T01:59:22;3.95;;;1.25;;
72611;SDS011;60655;52.182;4.474;2023-06-04T02:01:23;5.28;;;1.27;;
72611;SDS011;60655;52.182;4.474;2023-06-04T02:03:24;3.40;;;1.20;;
72611;SDS011;60655;52.182;4.474;2023-06-04T02:05:26;3.70;;;1.30;;
72611;SDS011;60655;52.182;4.474;2023-06-04T02:07:27;4.30;;;1.40;;
72611;SDS011;60655;52.182;4.474;2023-06-04T02:09:28;6.35;;;1.50;;
72611;SDS011;60655;52.182;4.474;2023-06-04T02:11:29;3.35;;;1.10;;
72611;SDS011;60655;52.182;4.474;2023-06-04T02:13:30;3.35;;;1.30;;
72611;SDS011;60655;52.182;4.474;2023-06-04T02:15:31;2.58;;;1.00;;
72611;SDS011;60655;52.182;4.474;2023-06-04T02:17:32;4.78;;;1.30;;
72611;SDS011;60655;52.182;4.474;2023-06-04T02:19:41;4.40;;;1.40;;
72611;SDS011;60655;52.182;4.474;2023-06-04T02:21:45;4.03;;;1.35;;
72611;SDS011;60655;52.182;4.474;2023-06-04T02:23:46;4.90;;;1.50;;
72611;SDS011;60655;52.182;4.474;2023-06-04T02:25:47;5.72;;;1.40;;
72611;SDS011;60655;52.182;4.474;2023-06-04T02:27:49;3.95;;;1.30;;
72611;SDS011;60655;52.182;4.474;2023-06-04T02:29:50;3.42;;;1.20;;
72611;SDS011;60655;52.182;4.474;2023-06-04T02:31:51;5.15;;;1.50;;
72611;SDS011;60655;52.182;4.474;2023-06-04T02:33:52;4.50;;;1.48;;
72611;SDS011;60655;52.182;4.474;2023-06-04T02:35:53;6.47;;;1.60;;
72611;SDS011;60655;52.182;4.474;2023-06-04T02:37:54;5.28;;;1.40;;
72611;SDS011;60655;52.182;4.474;2023-06-04T02:39:58;5.70;;;1.40;;
72611;SDS011;60655;52.182;4.474;2023-06-04T02:41:59;4.05;;;1.33;;
72611;SDS011;60655;52.182;4.474;2023-06-04T02:44:00;3.50;;;1.33;;
72611;SDS011;60655;52.182;4.474;2023-06-04T02:46:01;3.75;;;1.20;;
72611;SDS011;60655;52.182;4.474;2023-06-04T02:48:02;3.83;;;1.30;;
72611;SDS011;60655;52.182;4.474;2023-06-04T02:50:03;4.63;;;1.40;;
72611;SDS011;60655;52.182;4.474;2023-06-04T02:52:05;7.63;;;1.70;;
72611;SDS011;60655;52.182;4.474;2023-06-04T02:54:06;3.20;;;1.25;;
72611;SDS011;60655;52.182;4.474;2023-06-04T02:56:07;3.03;;;1.08;;
72611;SDS011;60655;52.182;4.474;2023-06-04T02:58:08;3.97;;;1.45;;
72611;SDS011;60655;52.182;4.474;2023-06-04T03:00:12;4.10;;;1.48;;
72611;SDS011;60655;52.182;4.474;2023-06-04T03:02:15;3.83;;;1.35;;
72611;SDS011;60655;52.182;4.474;2023-06-04T03:04:15;4.38;;;1.40;;
72611;SDS011;60655;52.182;4.474;2023-06-04T03:06:17;3.35;;;1.10;;
72611;SDS011;60655;52.182;4.474;2023-06-04T03:08:20;6.03;;;1.42;;
72611;SDS011;60655;52.182;4.474;2023-06-04T03:10:22;4.70;;;1.50;;
72611;SDS011;60655;52.182;4.474;2023-06-04T03:12:23;3.85;;;1.48;;
72611;SDS011;60655;52.182;4.474;2023-06-04T03:14:24;3.25;;;1.20;;
72611;SDS011;60655;52.182;4.474;2023-06-04T03:16:32;6.57;;;1.55;;
72611;SDS011;60655;52.182;4.474;2023-06-04T03:18:33;3.83;;;1.40;;
72611;SDS011;60655;52.182;4.474;2023-06-04T03:20:35;3.13;;;1.33;;
72611;SDS011;60655;52.182;4.474;2023-06-04T03:22:38;5.35;;;1.60;;
72611;SDS011;60655;52.182;4.474;2023-06-04T03:24:40;8.13;;;1.35;;
72611;SDS011;60655;52.182;4.474;2023-06-04T03:26:44;4.53;;;1.50;;
72611;SDS011;60655;52.182;4.474;2023-06-04T03:28:45;4.25;;;1.50;;
72611;SDS011;60655;52.182;4.474;2023-06-04T03:30:46;4.90;;;1.33;;
72611;SDS011;60655;52.182;4.474;2023-06-04T03:32:46;5.53;;;1.50;;
72611;SDS011;60655;52.182;4.474;2023-06-04T03:34:48;4.10;;;1.42;;
72611;SDS011;60655;52.182;4.474;2023-06-04T03:36:48;3.35;;;1.35;;
72611;SDS011;60655;52.182;4.474;2023-06-04T03:38:49;4.35;;;1.50;;
72611;SDS011;60655;52.182;4.474;2023-06-04T03:40:50;4.63;;;1.38;;
72611;SDS011;60655;52.182;4.474;2023-06-04T03:42:53;3.53;;;1.25;;
72611;SDS011;60655;52.182;4.474;2023-06-04T03:44:54;4.85;;;1.60;;
72611;SDS011;60655;52.182;4.474;2023-06-04T03:46:55;4.93;;;1.52;;
72611;SDS011;60655;52.182;4.474;2023-06-04T03:48:56;4.65;;;1.42;;
72611;SDS011;60655;52.182;4.474;2023-06-04T03:50:57;6.10;;;1.60;;
72611;SDS011;60655;52.182;4.474;2023-06-04T03:52:58;5.25;;;1.50;;
72611;SDS011;60655;52.182;4.474;2023-06-04T03:54:59;5.88;;;2.00;;
72611;SDS011;60655;52.182;4.474;2023-06-04T03:57:00;4.13;;;1.45;;
72611;SDS011;60655;52.182;4.474;2023-06-04T03:59:02;5.65;;;1.42;;
72611;SDS011;60655;52.182;4.474;2023-06-04T04:01:03;4.65;;;1.52;;
72611;SDS011;60655;52.182;4.474;2023-06-04T04:03:05;6.78;;;1.60;;
72611;SDS011;60655;52.182;4.474;2023-06-04T04:05:08;3.58;;;1.20;;
72611;SDS011;60655;52.182;4.474;2023-06-04T04:07:11;3.65;;;1.55;;
72611;SDS011;60655;52.182;4.474;2023-06-04T04:09:12;5.15;;;1.85;;
72611;SDS011;60655;52.182;4.474;2023-06-04T04:11:13;7.93;;;2.03;;
72611;SDS011;60655;52.182;4.474;2023-06-04T04:13:15;4.25;;;1.55;;
72611;SDS011;60655;52.182;4.474;2023-06-04T04:15:16;5.47;;;2.00;;
72611;SDS011;60655;52.182;4.474;2023-06-04T04:17:17;5.22;;;1.83;;
72611;SDS011;60655;52.182;4.474;2023-06-04T04:19:18;6.57;;;2.08;;
72611;SDS011;60655;52.182;4.474;2023-06-04T04:21:19;8.45;;;2.05;;
72611;SDS011;60655;52.182;4.474;2023-06-04T04:23:21;5.55;;;2.10;;
72611;SDS011;60655;52.182;4.474;2023-06-04T04:25:23;6.68;;;1.95;;
72611;SDS011;60655;52.182;4.474;2023-06-04T04:27:24;8.00;;;2.28;;
72611;SDS011;60655;52.182;4.474;2023-06-04T04:29:25;7.68;;;2.60;;
72611;SDS011;60655;52.182;4.474;2023-06-04T04:31:28;7.25;;;2.70;;
72611;SDS011;60655;52.182;4.474;2023-06-04T04:33:29;6.95;;;2.25;;
72611;SDS011;60655;52.182;4.474;2023-06-04T04:37:53;6.75;;;2.53;;
72611;SDS011;60655;52.182;4.474;2023-06-04T04:39:55;9.75;;;2.63;;
72611;SDS011;60655;52.182;4.474;2023-06-04T04:41:56;7.05;;;2.15;;
72611;SDS011;60655;52.182;4.474;2023-06-04T04:44:02;8.07;;;2.40;;
72611;SDS011;60655;52.182;4.474;2023-06-04T04:46:06;8.77;;;2.47;;
72611;SDS011;60655;52.182;4.474;2023-06-04T04:48:08;7.22;;;2.50;;
72611;SDS011;60655;52.182;4.474;2023-06-04T04:50:09;7.57;;;2.65;;
72611;SDS011;60655;52.182;4.474;2023-06-04T04:52:11;9.02;;;2.67;;
72611;SDS011;60655;52.182;4.474;2023-06-04T04:54:11;9.40;;;3.10;;
72611;SDS011;60655;52.182;4.474;2023-06-04T04:56:13;7.47;;;2.72;;
72611;SDS011;60655;52.182;4.474;2023-06-04T04:58:14;6.30;;;2.35;;
72611;SDS011;60655;52.182;4.474;2023-06-04T05:02:37;9.80;;;3.00;;
72611;SDS011;60655;52.182;4.474;2023-06-04T05:04:38;6.07;;;2.50;;
72611;SDS011;60655;52.182;4.474;2023-06-04T05:06:39;8.85;;;2.45;;
72611;SDS011;60655;52.182;4.474;2023-06-04T05:08:40;7.57;;;2.60;;
72611;SDS011;60655;52.182;4.474;2023-06-04T05:10:42;7.13;;;2.75;;
72611;SDS011;60655;52.182;4.474;2023-06-04T05:12:50;10.95;;;3.20;;
72611;SDS011;60655;52.182;4.474;2023-06-04T05:14:54;10.02;;;2.78;;
72611;SDS011;60655;52.182;4.474;2023-06-04T05:16:56;8.25;;;2.65;;
72611;SDS011;60655;52.182;4.474;2023-06-04T05:18:57;6.97;;;2.83;;
72611;SDS011;60655;52.182;4.474;2023-06-04T05:20:58;6.50;;;2.45;;
72611;SDS011;60655;52.182;4.474;2023-06-04T05:23:03;6.30;;;2.60;;
72611;SDS011;60655;52.182;4.474;2023-06-04T05:25:04;8.55;;;2.78;;
72611;SDS011;60655;52.182;4.474;2023-06-04T05:27:09;7.07;;;2.70;;
72611;SDS011;60655;52.182;4.474;2023-06-04T05:29:10;8.35;;;2.70;;
72611;SDS011;60655;52.182;4.474;2023-06-04T05:31:11;8.90;;;2.65;;
72611;SDS011;60655;52.182;4.474;2023-06-04T05:33:13;9.88;;;2.80;;
72611;SDS011;60655;52.182;4.474;2023-06-04T05:35:21;6.60;;;2.47;;
72611;SDS011;60655;52.182;4.474;2023-06-04T05:37:23;9.75;;;2.75;;
72611;SDS011;60655;52.182;4.474;2023-06-04T05:39:27;9.20;;;3.28;;
72611;SDS011;60655;52.182;4.474;2023-06-04T05:41:28;7.85;;;2.83;;
72611;SDS011;60655;52.182;4.474;2023-06-04T05:43:29;10.18;;;3.30;;
72611;SDS011;60655;52.182;4.474;2023-06-04T05:45:30;8.57;;;2.78;;
72611;SDS011;60655;52.182;4.474;2023-06-04T05:47:31;10.32;;;2.80;;
72611;SDS011;60655;52.182;4.474;2023-06-04T05:49:35;11.07;;;2.90;;
72611;SDS011;60655;52.182;4.474;2023-06-04T05:51:36;10.48;;;2.83;;
72611;SDS011;60655;52.182;4.474;2023-06-04T05:53:37;6.65;;;2.55;;
72611;SDS011;60655;52.182;4.474;2023-06-04T05:55:38;8.43;;;2.58;;
72611;SDS011;60655;52.182;4.474;2023-06-04T05:57:39;9.65;;;2.95;;
72611;SDS011;60655;52.182;4.474;2023-06-04T05:59:40;8.35;;;2.85;;
72611;SDS011;60655;52.182;4.474;2023-06-04T06:01:41;9.85;;;2.78;;
72611;SDS011;60655;52.182;4.474;2023-06-04T06:03:42;8.32;;;2.75;;
72611;SDS011;60655;52.182;4.474;2023-06-04T06:05:43;10.43;;;2.72;;
72611;SDS011;60655;52.182;4.474;2023-06-04T06:07:44;8.30;;;2.45;;
72611;SDS011;60655;52.182;4.474;2023-06-04T06:09:45;8.32;;;2.50;;
72611;SDS011;60655;52.182;4.474;2023-06-04T06:11:46;9.52;;;2.80;;
72611;SDS011;60655;52.182;4.474;2023-06-04T06:13:47;8.30;;;2.50;;
72611;SDS011;60655;52.182;4.474;2023-06-04T06:15:48;6.75;;;2.05;;
72611;SDS011;60655;52.182;4.474;2023-06-04T06:17:49;9.23;;;2.67;;
72611;SDS011;60655;52.182;4.474;2023-06-04T06:19:50;6.82;;;2.40;;
72611;SDS011;60655;52.182;4.474;2023-06-04T06:21:52;6.97;;;2.50;;
72611;SDS011;60655;52.182;4.474;2023-06-04T06:23:53;7.97;;;2.38;;
72611;SDS011;60655;52.182;4.474;2023-06-04T06:25:54;9.10;;;2.70;;
72611;SDS011;60655;52.182;4.474;2023-06-04T06:27:56;7.45;;;2.08;;
72611;SDS011;60655;52.182;4.474;2023-06-04T06:29:57;7.43;;;2.33;;
72611;SDS011;60655;52.182;4.474;2023-06-04T06:31:57;8.13;;;2.50;;
72611;SDS011;60655;52.182;4.474;2023-06-04T06:33:59;9.80;;;2.53;;
72611;SDS011;60655;52.182;4.474;2023-06-04T06:36:00;6.45;;;2.13;;
72611;SDS011;60655;52.182;4.474;2023-06-04T06:38:01;13.32;;;2.42;;
72611;SDS011;60655;52.182;4.474;2023-06-04T06:40:02;7.00;;;2.22;;
72611;SDS011;60655;52.182;4.474;2023-06-04T06:42:04;7.82;;;2.30;;
72611;SDS011;60655;52.182;4.474;2023-06-04T06:44:05;6.15;;;2.35;;
72611;SDS011;60655;52.182;4.474;2023-06-04T06:46:06;9.23;;;2.05;;
72611;SDS011;60655;52.182;4.474;2023-06-04T06:48:07;7.25;;;2.20;;
72611;SDS011;60655;52.182;4.474;2023-06-04T06:50:08;8.38;;;2.17;;
72611;SDS011;60655;52.182;4.474;2023-06-04T06:52:09;9.18;;;2.17;;
72611;SDS011;60655;52.182;4.474;2023-06-04T06:54:10;6.43;;;1.98;;
72611;SDS011;60655;52.182;4.474;2023-06-04T06:56:15;9.63;;;1.90;;
72611;SDS011;60655;52.182;4.474;2023-06-04T06:58:16;5.53;;;1.63;;
72611;SDS011;60655;52.182;4.474;2023-06-04T07:00:17;7.00;;;1.90;;
72611;SDS011;60655;52.182;4.474;2023-06-04T07:02:19;8.18;;;2.08;;
72611;SDS011;60655;52.182;4.474;2023-06-04T07:04:20;7.30;;;1.70;;
72611;SDS011;60655;52.182;4.474;2023-06-04T07:06:21;7.28;;;1.60;;
72611;SDS011;60655;52.182;4.474;2023-06-04T07:08:22;5.30;;;1.60;;
72611;SDS011;60655;52.182;4.474;2023-06-04T07:10:23;5.15;;;1.40;;
72611;SDS011;60655;52.182;4.474;2023-06-04T07:12:25;7.18;;;1.70;;
72611;SDS011;60655;52.182;4.474;2023-06-04T07:14:26;5.30;;;1.60;;
72611;SDS011;60655;52.182;4.474;2023-06-04T07:16:27;3.90;;;1.30;;
72611;SDS011;60655;52.182;4.474;2023-06-04T07:18:27;7.55;;;1.65;;
72611;SDS011;60655;52.182;4.474;2023-06-04T07:20:28;5.28;;;1.60;;
72611;SDS011;60655;52.182;4.474;2023-06-04T07:22:31;3.10;;;1.38;;
72611;SDS011;60655;52.182;4.474;2023-06-04T07:24:32;6.65;;;1.65;;
72611;SDS011;60655;52.182;4.474;2023-06-04T07:26:33;14.25;;;1.67;;
72611;SDS011;60655;52.182;4.474;2023-06-04T07:28:34;5.45;;;1.38;;
72611;SDS011;60655;52.182;4.474;2023-06-04T07:30:35;4.00;;;1.23;;
72611;SDS011;60655;52.182;4.474;2023-06-04T07:32:37;9.73;;;1.63;;
72611;SDS011;60655;52.182;4.474;2023-06-04T07:34:38;4.63;;;1.40;;
72611;SDS011;60655;52.182;4.474;2023-06-04T07:36:39;5.05;;;1.50;;
72611;SDS011;60655;52.182;4.474;2023-06-04T07:38:40;4.43;;;1.25;;
72611;SDS011;60655;52.182;4.474;2023-06-04T07:40:41;5.38;;;1.55;;
72611;SDS011;60655;52.182;4.474;2023-06-04T07:42:45;4.82;;;1.38;;
72611;SDS011;60655;52.182;4.474;2023-06-04T07:44:47;4.38;;;1.20;;
72611;SDS011;60655;52.182;4.474;2023-06-04T07:46:48;4.25;;;1.20;;
72611;SDS011;60655;52.182;4.474;2023-06-04T07:48:49;5.07;;;1.20;;
72611;SDS011;60655;52.182;4.474;2023-06-04T07:50:50;5.28;;;1.30;;
72611;SDS011;60655;52.182;4.474;2023-06-04T07:52:51;3.05;;;1.00;;
72611;SDS011;60655;52.182;4.474;2023-06-04T07:54:52;5.18;;;1.33;;
72611;SDS011;60655;52.182;4.474;2023-06-04T07:56:53;7.90;;;1.45;;
72611;SDS011;60655;52.182;4.474;2023-06-04T07:58:56;3.42;;;1.25;;
72611;SDS011;60655;52.182;4.474;2023-06-04T08:00:57;5.85;;;1.40;;
72611;SDS011;60655;52.182;4.474;2023-06-04T08:02:58;7.80;;;1.17;;
72611;SDS011;60655;52.182;4.474;2023-06-04T08:04:59;4.85;;;1.30;;
72611;SDS011;60655;52.182;4.474;2023-06-04T08:07:01;7.07;;;1.35;;
72611;SDS011;60655;52.182;4.474;2023-06-04T08:09:02;5.00;;;1.15;;
72611;SDS011;60655;52.182;4.474;2023-06-04T08:11:03;4.85;;;1.35;;
72611;SDS011;60655;52.182;4.474;2023-06-04T08:13:04;6.30;;;1.13;;
72611;SDS011;60655;52.182;4.474;2023-06-04T08:15:05;7.03;;;1.58;;
72611;SDS011;60655;52.182;4.474;2023-06-04T08:17:06;3.83;;;1.30;;
72611;SDS011;60655;52.182;4.474;2023-06-04T08:19:07;4.00;;;1.15;;
72611;SDS011;60655;52.182;4.474;2023-06-04T08:21:09;6.25;;;1.33;;
72611;SDS011;60655;52.182;4.474;2023-06-04T08:23:11;4.15;;;1.30;;
72611;SDS011;60655;52.182;4.474;2023-06-04T08:25:12;4.93;;;1.30;;
72611;SDS011;60655;52.182;4.474;2023-06-04T08:27:14;7.00;;;1.30;;
72611;SDS011;60655;52.182;4.474;2023-06-04T08:29:16;4.15;;;1.30;;
72611;SDS011;60655;52.182;4.474;2023-06-04T08:31:16;7.03;;;1.30;;
72611;SDS011;60655;52.182;4.474;2023-06-04T08:33:17;5.05;;;1.30;;
72611;SDS011;60655;52.182;4.474;2023-06-04T08:35:18;4.13;;;1.20;;
72611;SDS011;60655;52.182;4.474;2023-06-04T08:37:19;4.72;;;1.42;;
72611;SDS011;60655;52.182;4.474;2023-06-04T08:39:21;5.15;;;1.08;;
72611;SDS011;60655;52.182;4.474;2023-06-04T08:41:34;5.13;;;1.17;;
72611;SDS011;60655;52.182;4.474;2023-06-04T08:43:43;4.75;;;1.30;;
72611;SDS011;60655;52.182;4.474;2023-06-04T08:45:44;2.90;;;1.00;;
72611;SDS011;60655;52.182;4.474;2023-06-04T08:47:50;4.78;;;1.27;;
72611;SDS011;60655;52.182;4.474;2023-06-04T08:49:52;5.05;;;1.05;;
72611;SDS011;60655;52.182;4.474;2023-06-04T08:51:53;6.03;;;0.98;;
72611;SDS011;60655;52.182;4.474;2023-06-04T08:53:54;5.57;;;1.00;;
72611;SDS011;60655;52.182;4.474;2023-06-04T08:55:57;3.53;;;1.10;;
72611;SDS011;60655;52.182;4.474;2023-06-04T08:57:58;3.53;;;1.00;;
72611;SDS011;60655;52.182;4.474;2023-06-04T09:00:01;6.22;;;1.13;;
72611;SDS011;60655;52.182;4.474;2023-06-04T09:02:05;6.65;;;1.15;;
72611;SDS011;60655;52.182;4.474;2023-06-04T09:04:07;8.20;;;1.20;;
72611;SDS011;60655;52.182;4.474;2023-06-04T09:06:08;3.47;;;0.93;;
72611;SDS011;60655;52.182;4.474;2023-06-04T09:08:09;6.05;;;1.23;;
72611;SDS011;60655;52.182;4.474;2023-06-04T09:10:13;4.72;;;1.02;;
72611;SDS011;60655;52.182;4.474;2023-06-04T09:12:22;3.92;;;0.90;;
72611;SDS011;60655;52.182;4.474;2023-06-04T09:14:25;6.18;;;1.20;;
72611;SDS011;60655;52.182;4.474;2023-06-04T09:16:26;7.45;;;1.30;;
72611;SDS011;60655;52.182;4.474;2023-06-04T09:18:27;3.75;;;1.00;;
72611;SDS011;60655;52.182;4.474;2023-06-04T09:20:30;6.47;;;1.10;;
72611;SDS011;60655;52.182;4.474;2023-06-04T09:22:33;5.15;;;1.10;;
72611;SDS011;60655;52.182;4.474;2023-06-04T09:24:42;7.10;;;1.20;;
72611;SDS011;60655;52.182;4.474;2023-06-04T09:26:45;4.72;;;1.10;;
72611;SDS011;60655;52.182;4.474;2023-06-04T09:28:46;3.42;;;1.08;;
72611;SDS011;60655;52.182;4.474;2023-06-04T09:30:51;2.42;;;0.90;;
72611;SDS011;60655;52.182;4.474;2023-06-04T09:32:53;5.47;;;1.13;;
72611;SDS011;60655;52.182;4.474;2023-06-04T09:34:55;5.55;;;1.10;;
72611;SDS011;60655;52.182;4.474;2023-06-04T09:36:57;5.22;;;1.05;;
72611;SDS011;60655;52.182;4.474;2023-06-04T09:38:59;4.90;;;1.23;;
72611;SDS011;60655;52.182;4.474;2023-06-04T09:41:01;5.60;;;1.00;;
72611;SDS011;60655;52.182;4.474;2023-06-04T09:43:05;8.02;;;1.30;;
72611;SDS011;60655;52.182;4.474;2023-06-04T09:45:06;3.15;;;1.00;;
72611;SDS011;60655;52.182;4.474;2023-06-04T09:47:08;6.88;;;1.30;;
72611;SDS011;60655;52.182;4.474;2023-06-04T09:49:09;4.82;;;1.10;;
72611;SDS011;60655;52.182;4.474;2023-06-04T09:51:12;3.75;;;1.00;;
72611;SDS011;60655;52.182;4.474;2023-06-04T09:53:17;7.05;;;1.05;;
72611;SDS011;60655;52.182;4.474;2023-06-04T09:55:22;8.40;;;1.10;;
72611;SDS011;60655;52.182;4.474;2023-06-04T09:57:24;3.53;;;1.00;;
72611;SDS011;60655;52.182;4.474;2023-06-04T09:59:26;3.67;;;1.10;;
72611;SDS011;60655;52.182;4.474;2023-06-04T10:01:28;6.00;;;1.20;;
72611;SDS011;60655;52.182;4.474;2023-06-04T10:03:31;3.58;;;1.15;;
72611;SDS011;60655;52.182;4.474;2023-06-04T10:05:33;4.15;;;1.02;;
72611;SDS011;60655;52.182;4.474;2023-06-04T10:07:35;3.05;;;0.98;;
72611;SDS011;60655;52.182;4.474;2023-06-04T10:09:38;3.40;;;1.00;;
72611;SDS011;60655;52.182;4.474;2023-06-04T10:11:47;4.30;;;1.13;;
72611;SDS011;60655;52.182;4.474;2023-06-04T10:14:00;4.45;;;1.13;;
72611;SDS011;60655;52.182;4.474;2023-06-04T10:16:02;3.28;;;1.25;;
72611;SDS011;60655;52.182;4.474;2023-06-04T10:18:04;5.65;;;1.20;;
72611;SDS011;60655;52.182;4.474;2023-06-04T10:20:11;3.75;;;1.38;;
72611;SDS011;60655;52.182;4.474;2023-06-04T10:22:12;4.00;;;1.10;;
72611;SDS011;60655;52.182;4.474;2023-06-04T10:24:13;3.95;;;1.08;;
72611;SDS011;60655;52.182;4.474;2023-06-04T10:26:15;4.55;;;1.15;;
72611;SDS011;60655;52.182;4.474;2023-06-04T10:28:17;4.97;;;1.27;;
72611;SDS011;60655;52.182;4.474;2023-06-04T10:30:20;4.72;;;1.15;;
72611;SDS011;60655;52.182;4.474;2023-06-04T10:32:21;2.83;;;1.08;;
72611;SDS011;60655;52.182;4.474;2023-06-04T10:34:22;3.72;;;0.93;;
72611;SDS011;60655;52.182;4.474;2023-06-04T10:36:23;4.45;;;1.13;;
72611;SDS011;60655;52.182;4.474;2023-06-04T10:38:25;3.30;;;0.90;;
72611;SDS011;60655;52.182;4.474;2023-06-04T10:40:33;3.10;;;1.00;;
72611;SDS011;60655;52.182;4.474;2023-06-04T10:42:40;5.07;;;1.00;;
72611;SDS011;60655;52.182;4.474;2023-06-04T10:44:46;4.57;;;1.00;;
72611;SDS011;60655;52.182;4.474;2023-06-04T10:46:48;5.20;;;1.10;;
72611;SDS011;60655;52.182;4.474;2023-06-04T10:48:49;4.07;;;1.20;;
72611;SDS011;60655;52.182;4.474;2023-06-04T10:50:52;3.67;;;0.95;;
72611;SDS011;60655;52.182;4.474;2023-06-04T10:52:54;5.13;;;0.90;;
72611;SDS011;60655;52.182;4.474;2023-06-04T10:55:04;2.38;;;1.10;;
72611;SDS011;60655;52.182;4.474;2023-06-04T10:57:13;3.50;;;1.00;;
72611;SDS011;60655;52.182;4.474;2023-06-04T10:59:17;5.43;;;1.05;;
72611;SDS011;60655;52.182;4.474;2023-06-04T11:01:25;2.70;;;1.02;;
72611;SDS011;60655;52.182;4.474;2023-06-04T11:03:36;4.25;;;1.08;;
72611;SDS011;60655;52.182;4.474;2023-06-04T11:05:39;3.58;;;1.02;;
72611;SDS011;60655;52.182;4.474;2023-06-04T11:09:49;4.28;;;1.00;;
72611;SDS011;60655;52.182;4.474;2023-06-04T11:11:57;4.15;;;1.17;;
72611;SDS011;60655;52.182;4.474;2023-06-04T11:14:11;3.33;;;1.13;;
72611;SDS011;60655;52.182;4.474;2023-06-04T11:16:19;3.53;;;1.02;;
72611;SDS011;60655;52.182;4.474;2023-06-04T11:18:21;3.08;;;1.05;;
72611;SDS011;60655;52.182;4.474;2023-06-04T11:20:23;4.50;;;1.17;;
72611;SDS011;60655;52.182;4.474;2023-06-04T11:22:24;4.13;;;1.00;;
72611;SDS011;60655;52.182;4.474;2023-06-04T11:24:25;6.00;;;1.20;;
72611;SDS011;60655;52.182;4.474;2023-06-04T11:26:33;5.00;;;1.10;;
72611;SDS011;60655;52.182;4.474;2023-06-04T11:28:35;4.13;;;1.10;;
72611;SDS011;60655;52.182;4.474;2023-06-04T11:30:37;3.50;;;1.15;;
72611;SDS011;60655;52.182;4.474;2023-06-04T11:35:03;3.45;;;1.00;;
72611;SDS011;60655;52.182;4.474;2023-06-04T11:37:09;4.00;;;1.00;;
72611;SDS011;60655;52.182;4.474;2023-06-04T11:39:11;5.25;;;1.00;;
72611;SDS011;60655;52.182;4.474;2023-06-04T11:41:13;4.18;;;1.20;;
72611;SDS011;60655;52.182;4.474;2023-06-04T11:43:14;4.68;;;1.08;;
72611;SDS011;60655;52.182;4.474;2023-06-04T11:45:16;4.90;;;1.60;;
72611;SDS011;60655;52.182;4.474;2023-06-04T11:47:18;3.53;;;1.00;;
72611;SDS011;60655;52.182;4.474;2023-06-04T11:49:19;2.78;;;0.90;;
72611;SDS011;60655;52.182;4.474;2023-06-04T11:51:21;6.28;;;1.20;;
72611;SDS011;60655;52.182;4.474;2023-06-04T11:53:22;2.17;;;0.90;;
72611;SDS011;60655;52.182;4.474;2023-06-04T11:55:23;3.42;;;1.08;;
72611;SDS011;60655;52.182;4.474;2023-06-04T11:57:25;4.40;;;1.05;;
72611;SDS011;60655;52.182;4.474;2023-06-04T11:59:28;4.68;;;1.20;;
72611;SDS011;60655;52.182;4.474;2023-06-04T12:01:29;3.13;;;1.08;;
72611;SDS011;60655;52.182;4.474;2023-06-04T12:03:39;4.43;;;1.02;;
72611;SDS011;60655;52.182;4.474;2023-06-04T12:05:42;5.93;;;1.20;;
72611;SDS011;60655;52.182;4.474;2023-06-04T12:07:43;5.15;;;1.20;;
72611;SDS011;60655;52.182;4.474;2023-06-04T12:09:45;4.30;;;1.20;;
72611;SDS011;60655;52.182;4.474;2023-06-04T12:11:46;4.38;;;1.10;;
72611;SDS011;60655;52.182;4.474;2023-06-04T12:13:46;6.05;;;1.27;;
72611;SDS011;60655;52.182;4.474;2023-06-04T12:15:52;4.40;;;1.30;;
72611;SDS011;60655;52.182;4.474;2023-06-04T12:17:53;5.70;;;1.25;;
72611;SDS011;60655;52.182;4.474;2023-06-04T12:19:57;5.60;;;1.38;;
72611;SDS011;60655;52.182;4.474;2023-06-04T12:22:00;4.97;;;1.27;;
72611;SDS011;60655;52.182;4.474;2023-06-04T12:26:19;4.35;;;1.33;;
72611;SDS011;60655;52.182;4.474;2023-06-04T12:28:29;5.95;;;1.23;;
72611;SDS011;60655;52.182;4.474;2023-06-04T12:30:37;7.10;;;1.40;;
72611;SDS011;60655;52.182;4.474;2023-06-04T12:32:38;6.95;;;1.38;;
72611;SDS011;60655;52.182;4.474;2023-06-04T12:34:40;5.88;;;1.23;;